• Join FlightAware (Why Join?)
  • Login
  • US Flag 
09:48AM EDT


 

Airport Tracker/Info


-or-


 

Live Flight TrackerFlight Track Log ✈ EJA922 ✈ 15-Feb-2014 ✈ KPWA - KMDW

Flight Track Log - Related Links

Times and Time Zones

All times are in EST time to prevent confusion due to time zone crossing. See the EJA922 flight status page for this flight to view local times or setup timezone preferences in your user account.

Time Position Orientation Groundspeed Altitude Reporting Facility
EST Latitude Longitude Course Direction KTS MPH feet Rate Location/Type
08:02PM 35.5244 -97.6453 61° Northeast 158 182 1,900  Level Fort Worth Center
08:03PM 35.4700 -97.6675 198° South 203 234 3,100 1,320 Climbing Fort Worth Center
08:04PM 35.4394 -97.6822 201° Southwest 222 255 4,000 3,480 Climbing Fort Worth Center
08:04PM 35.4072 -97.6886 189° South 263 303 6,600 4,800 Climbing Fort Worth Center
08:05PM 35.3961 -97.6475 108° East 249 287 9,000 3,420 Climbing Fort Worth Center
08:06PM 35.4322 -97.5650 62° Northeast 279 321 12,100 2,640 Climbing Fort Worth Center
08:07PM 35.4831 -97.4525 61° Northeast 362 417 14,500 2,940 Climbing Fort Worth Center
08:08PM 35.6023 -97.0649 61° Northeast  Level FlightAware Approximate
08:08PM 35.5375 -97.3300 61° Northeast 394 453 18,200  Level Fort Worth Center
08:09PM 35.6081 -97.2303 49° Northeast 383 441 20,300 3,480 Climbing Fort Worth Center
08:10PM 35.6778 -97.1350 48° Northeast 383 441 25,000 4,500 Climbing Kansas City Center
08:10PM 35.6778 -97.1350 48° Northeast 376 433 25,000 3,060 Level Fort Worth Center
08:11PM 35.7364 -97.0556 48° Northeast 328 377 28,300 2,940 Climbing Kansas City Center
08:12PM 35.8003 -96.9686 48° Northeast 336 387 30,800 2,520 Climbing Kansas City Center
08:13PM 35.8656 -96.8806 48° Northeast 345 397 33,500 2,340 Climbing Kansas City Center
08:14PM 35.9306 -96.7900 48° Northeast 350 403 35,600 1,800 Climbing Kansas City Center
08:15PM 36.0000 -96.6958 48° Northeast 364 419 37,300 1,620 Climbing Kansas City Center
08:16PM 36.0814 -96.5847 48° Northeast 382 440 39,000 1,320 Climbing Kansas City Center
08:17PM 36.1575 -96.4822 47° Northeast 396 456 40,000 1,080 Climbing Kansas City Center
08:18PM 36.2356 -96.3708 49° Northeast 417 480 41,300 1,200 Climbing Kansas City Center
08:19PM 36.3150 -96.2614 48° Northeast 425 489 42,500 960 Climbing Kansas City Center
08:20PM 36.3956 -96.1492 48° Northeast 430 495 43,300 600 Climbing Kansas City Center
08:21PM 36.4789 -96.0350 48° Northeast 438 504 43,800 540 Climbing Kansas City Center
08:22PM 36.5631 -95.9142 49° Northeast 451 519 44,500 540 Climbing Kansas City Center
08:23PM 36.6497 -95.7931 48° Northeast 459 528 45,000 240 Climbing Kansas City Center
08:24PM 36.7389 -95.6692 48° Northeast 466 536 45,000  Level Kansas City Center
08:25PM 36.8292 -95.5406 49° Northeast 478 550 45,000  Level Kansas City Center
08:26PM 36.9186 -95.4133 49° Northeast 483 556 45,000  Level Kansas City Center
08:27PM 37.0061 -95.2886 49° Northeast 477 549 45,000  Level Kansas City Center
08:28PM 37.0947 -95.1636 48° Northeast 477 549 45,000  Level Kansas City Center
08:29PM 37.1842 -95.0350 49° Northeast 482 555 45,000  Level Kansas City Center
08:30PM 37.2739 -94.9053 49° Northeast 488 562 45,000  Level Kansas City Center
08:31PM 37.3661 -94.7708 49° Northeast 499 574 45,000  Level Kansas City Center
08:32PM 37.4597 -94.6386 48° Northeast 503 579 45,000  Level Kansas City Center
08:33PM 37.5725 -94.4756 49° Northeast 510 587 45,000  Level Kansas City Center
08:34PM 37.6678 -94.3392 49° Northeast 515 593 45,000  Level Kansas City Center
08:35PM 37.7536 -94.2147 49° Northeast 518 596 45,000  Level Kansas City Center
08:36PM 37.8494 -94.0781 48° Northeast 518 596 45,000  Level Kansas City Center
08:37PM 37.9428 -93.9414 49° Northeast 514 592 45,000  Level Kansas City Center
08:38PM 38.0367 -93.8050 49° Northeast 512 589 45,000  Level Kansas City Center
08:39PM 38.1289 -93.6689 49° Northeast 508 585 45,000  Level Kansas City Center
08:40PM 38.2225 -93.5339 49° Northeast 505 581 45,000  Level Kansas City Center
08:41PM 38.3311 -93.3722 49° Northeast 501 577 45,000  Level Kansas City Center
08:42PM 38.4211 -93.2394 49° Northeast 495 570 45,000  Level Kansas City Center
08:43PM 38.5100 -93.1058 50° Northeast 492 566 45,000  Level Kansas City Center
08:44PM 38.5994 -92.9714 50° Northeast 491 565 45,000  Level Kansas City Center
08:46PM 38.6878 -92.8394 49° Northeast 488 562 45,000  Level Kansas City Center
08:47PM 38.7753 -92.7083 49° Northeast 483 556 45,000  Level Kansas City Center
08:48PM 38.8611 -92.5769 50° Northeast 479 551 45,000  Level Kansas City Center
08:49PM 38.9469 -92.4472 50° Northeast 476 548 45,000  Level Kansas City Center
08:50PM 39.0328 -92.3172 50° Northeast 474 545 45,000  Level Kansas City Center
08:51PM 39.1183 -92.1872 50° Northeast 472 543 45,000  Level Kansas City Center
08:52PM 39.2053 -92.0558 49° Northeast 476 548 45,000  Level Kansas City Center
08:53PM 39.2947 -91.9142 51° Northeast 493 567 45,000  Level Kansas City Center
08:54PM 39.3878 -91.7853 47° Northeast 497 572 45,000  Level Kansas City Center
08:55PM 39.4833 -91.6558 46° Northeast 495 570 45,000  Level Kansas City Center
08:56PM 39.5769 -91.5258 47° Northeast 499 574 45,000  Level Kansas City Center
08:57PM 39.6925 -91.3656 47° Northeast 506 582 45,000 -1,200 Level Kansas City Center
08:58PM 39.7919 -91.2297 46° Northeast 515 593 42,600 -2,580 Descending Kansas City Center
08:59PM 39.8872 -91.0961 47° Northeast 512 589 39,900 -2,640 Descending Kansas City Center
09:00PM 39.9814 -90.9633 47° Northeast 518 596 37,300 -2,640 Descending Kansas City Center
09:01PM 40.0786 -90.8283 47° Northeast 515 593 34,600 -2,760 Descending Kansas City Center
09:02PM 40.1767 -90.6883 47° Northeast 518 596 31,800 -1,800 Descending Kansas City Center
09:03PM 40.2775 -90.5450 47° Northeast 529 609 31,000 -420 Descending Kansas City Center
09:04PM 40.3814 -90.3972 47° Northeast 542 624 31,000 -420 Level Kansas City Center
09:05PM 40.4844 -90.2497 47° Northeast 547 629 30,200 -1,440 Descending Kansas City Center
09:06PM 40.6078 -90.0875 45° Northeast 533 613 28,100 -2,400 Descending Kansas City Center
09:07PM 40.7058 -89.9714 42° Northeast 489 563 25,400 -2,580 Descending Kansas City Center
09:08PM 40.7897 -89.8661 44° Northeast 478 550 22,900 -2,280 Descending Kansas City Center
09:09PM 40.8972 -89.6792 53° Northeast 459 528 20,000 -2,100 Descending Chicago Center
09:10PM 40.9606 -89.5267 61° Northeast 456 525 18,100 -1,800 Descending Chicago Center
09:11PM 41.0208 -89.3814 61° Northeast 449 517 16,400 -1,680 Descending Chicago Center
09:12PM 41.0789 -89.2397 61° Northeast 439 505 14,700 -1,740 Descending Chicago Center
09:13PM 41.1400 -89.0892 62° Northeast 407 468 12,900 -1,620 Descending Chicago Center
09:14PM 41.1861 -88.9769 61° Northeast 355 409 11,500 -1,320 Descending Chicago Center
09:15PM 41.2272 -88.8731 62° Northeast 327 376 10,300 -1,200 Descending Chicago Center
09:16PM 41.2672 -88.7753 61° Northeast 309 356 9,100 -1,200 Descending Chicago Center
09:17PM 41.3061 -88.6781 62° Northeast 300 345 7,900 -1,200 Descending Chicago Center
09:18PM 41.3461 -88.5781 62° Northeast 304 350 6,800 -960 Descending Chicago Center
09:19PM 41.3881 -88.4819 60° Northeast 300 345 6,000 -420 Descending Chicago Center
09:20PM 41.4450 -88.4036 46° Northeast 292 336 6,000 -480 Level Chicago Center
09:21PM 41.5081 -88.3342 40° Northeast 291 335 5,100 -540 Descending Chicago Center
09:22PM 41.5694 -88.2661 40° Northeast 286 329 5,000 -240 Descending Chicago Center
09:23PM 41.6244 -88.2072 39° Northeast 263 303 4,700 -540 Descending Chicago Center
09:24PM 41.6761 -88.1558 37° Northeast 244 281 4,000 -780 Descending Chicago Center
09:26PM 41.7267 -88.1042 37° Northeast 234 269 3,200 -780 Descending Chicago Center
09:27PM 41.7756 -88.0539 37° Northeast 228 262 2,500 -480 Descending Chicago Center
09:28PM 41.8328 -87.9936 38° Northeast 222 255 2,300 -120 Descending Chicago Center
09:29PM 41.8686 -87.9283 54° Northeast 224 258 2,300  Level Chicago Center
09:30PM 41.8636 -87.8625 96° East 211 243 2,300 -180 Level Chicago Center
09:31PM 41.8294 -87.8169 135° Southeast 189 217 2,000 -600 Descending Chicago Center
09:32PM 41.8064 -87.7836 133° Southeast 154 177 1,200 -480 Descending Chicago Center
09:33PM 41.7822 -87.7500 134° Southeast 149 171 1,100 -120 Descending Chicago Center